createdAt,value
2018-04-24T00:00:25.876Z,13.14
2018-04-24T00:03:00.687Z,13.24
2018-04-24T00:05:32.637Z,13.09
2018-04-24T00:08:05.387Z,13.13
2018-04-24T00:10:38.279Z,13.06
2018-04-24T00:13:12.184Z,13.11
2018-04-24T00:15:44.733Z,13.15
2018-04-24T00:18:18.675Z,13.16
2018-04-24T00:20:51.620Z,13.27
2018-04-24T00:23:23.645Z,13.25
2018-04-24T00:28:31.795Z,13.31
2018-04-24T00:31:04.663Z,13.38
2018-04-24T00:33:35.791Z,13.26
2018-04-24T00:36:08.167Z,13.48
2018-04-24T00:38:41.057Z,13.37
2018-04-24T00:41:12.823Z,13.27
2018-04-24T00:46:21.255Z,13.27
2018-04-24T00:51:30.865Z,13.26
2018-04-24T00:54:04.076Z,13.13
2018-04-24T00:56:36.526Z,13.14
2018-04-24T00:59:10.098Z,13.19
2018-04-24T01:01:42.850Z,13.21
2018-04-24T01:04:15.548Z,13.31
2018-04-24T01:09:24.552Z,13.25
2018-04-24T01:11:57.541Z,13.23
2018-04-24T01:14:36.813Z,13.23
2018-04-24T01:19:45.849Z,13.23
2018-04-24T01:22:18.753Z,13.23
2018-04-24T01:27:27.548Z,13.29
2018-04-24T01:30:00.183Z,13.26
2018-04-24T01:32:32.521Z,13.23
2018-04-24T01:35:05.443Z,13.27
2018-04-24T01:37:40.461Z,13.23
2018-04-24T01:42:49.796Z,13.26
2018-04-24T01:45:22.890Z,13.36
2018-04-24T01:50:31.567Z,13.23
2018-04-24T01:53:05.915Z,13.24
2018-04-24T01:58:12.015Z,13.21
2018-04-24T02:00:43.690Z,13.10
2018-04-24T02:03:16.230Z,13.12
2018-04-24T02:05:46.278Z,13.04
2018-04-24T02:08:15.845Z,13.12
2018-04-24T02:10:45.902Z,13.01
2018-04-24T02:13:15.618Z,13.03
2018-04-24T02:15:44.671Z,13.03
2018-04-24T02:18:14.457Z,13.05
2018-04-24T02:20:44.449Z,13.00
2018-04-24T02:23:14.499Z,12.90
2018-04-24T02:25:43.559Z,12.81
2018-04-24T02:28:13.615Z,12.84
2018-04-24T02:33:18.970Z,12.84
2018-04-24T02:38:24.911Z,12.96
2018-04-24T02:43:29.702Z,12.93
2018-04-24T02:45:58.762Z,12.88
2018-04-24T02:48:27.814Z,12.85
2018-04-24T02:50:58.418Z,12.87
2018-04-24T02:53:27.473Z,12.82
2018-04-24T02:55:58.018Z,12.76
2018-04-24T02:58:27.075Z,12.74
2018-04-24T03:00:56.113Z,12.70
2018-04-24T03:03:25.238Z,12.62
2018-04-24T03:05:54.562Z,12.59
2018-04-24T03:08:23.603Z,12.56
2018-04-24T03:13:28.591Z,12.48
2018-04-24T03:15:57.752Z,12.43
2018-04-24T03:18:26.787Z,12.39
2018-04-24T03:20:55.849Z,12.40
2018-04-24T03:23:24.918Z,12.32
2018-04-24T03:25:55.138Z,12.33
2018-04-24T03:28:24.202Z,12.36
2018-04-24T03:30:54.301Z,12.43
2018-04-24T03:33:23.354Z,12.44
2018-04-24T03:35:52.756Z,12.54
2018-04-24T03:38:21.802Z,12.57
2018-04-24T03:43:40.984Z,12.65
2018-04-24T03:46:10.068Z,12.74
2018-04-24T03:51:15.333Z,12.74
2018-04-24T03:53:44.396Z,12.79
2018-04-24T03:56:13.651Z,12.73
2018-04-24T03:58:42.731Z,12.72
2018-04-24T04:01:12.714Z,12.71
2018-04-24T04:03:41.770Z,12.70
2018-04-24T04:06:11.298Z,12.69
2018-04-24T04:08:42.377Z,12.73
2018-04-24T04:13:47.894Z,12.77
2018-04-24T04:16:16.965Z,12.69
2018-04-24T04:19:04.186Z,12.63
2018-04-24T04:21:51.285Z,12.62
2018-04-24T04:24:39.239Z,12.63
2018-04-24T04:27:08.301Z,12.57
2018-04-24T04:29:37.735Z,12.47
2018-04-24T04:32:06.804Z,12.45
2018-04-24T04:34:36.428Z,12.43
2018-04-24T04:37:06.637Z,12.50
2018-04-24T04:42:11.438Z,12.81
2018-04-24T04:44:41.367Z,13.01
2018-04-24T04:47:10.427Z,13.06
2018-04-24T04:49:40.851Z,13.08
2018-04-24T04:52:09.931Z,13.04
2018-04-24T04:54:39.520Z,12.97
2018-04-24T04:57:08.574Z,12.97
2018-04-24T04:59:38.255Z,12.92
2018-04-24T05:04:43.052Z,12.92
2018-04-24T05:07:12.226Z,12.85
2018-04-24T05:09:44.181Z,13.03
2018-04-24T05:12:13.213Z,13.10
2018-04-24T05:14:43.527Z,13.12
2018-04-24T05:17:12.903Z,13.15
2018-04-24T05:19:42.618Z,13.14
2018-04-24T05:22:14.153Z,13.12
2018-04-24T05:24:48.077Z,13.18
2018-04-24T05:27:20.648Z,13.32
2018-04-24T05:29:53.247Z,13.30
2018-04-24T05:32:24.809Z,13.36
2018-04-24T05:34:58.084Z,13.40
2018-04-24T05:37:30.369Z,13.44
2018-04-24T05:40:03.005Z,13.48
2018-04-24T05:42:35.827Z,13.56
2018-04-24T05:45:08.999Z,13.65
2018-04-24T05:50:19.710Z,13.83
2018-04-24T05:52:51.820Z,13.99
2018-04-24T05:57:59.580Z,14.11
2018-04-24T06:00:33.333Z,14.09
2018-04-24T06:03:04.109Z,14.14
2018-04-24T06:05:37.475Z,14.18
2018-04-24T06:08:07.958Z,14.31
2018-04-24T06:10:44.331Z,14.48
2018-04-24T06:13:16.562Z,14.68
2018-04-24T06:15:48.805Z,14.89
2018-04-24T06:18:21.444Z,14.94
2018-04-24T06:20:53.519Z,14.82
2018-04-24T06:26:03.822Z,14.80
2018-04-24T06:28:35.999Z,14.95
2018-04-24T06:31:07.680Z,14.95
2018-04-24T06:33:40.824Z,15.06
2018-04-24T06:36:12.372Z,15.18
2018-04-24T06:38:44.992Z,15.29
2018-04-24T06:41:16.999Z,15.40
2018-04-24T06:43:49.477Z,15.33
2018-04-24T06:46:21.492Z,15.36
2018-04-24T06:48:53.954Z,15.59
2018-04-24T06:54:02.028Z,15.66
2018-04-24T06:59:11.628Z,15.50
2018-04-24T07:01:43.960Z,15.72
2018-04-24T07:04:14.737Z,15.69
2018-04-24T07:09:24.988Z,15.48
2018-04-24T07:12:08.334Z,15.58
2018-04-24T07:14:43.338Z,15.55
2018-04-24T07:19:49.873Z,16.34
2018-04-24T07:22:22.951Z,16.49
2018-04-24T07:25:06.453Z,16.56
2018-04-24T07:30:15.433Z,16.37
2018-04-24T07:35:38.134Z,16.50
2018-04-24T07:38:10.588Z,16.60
2018-04-24T07:40:47.405Z,16.61
2018-04-24T07:43:19.371Z,16.66
2018-04-24T07:45:50.926Z,17.00
2018-04-24T07:48:23.564Z,17.24
2018-04-24T07:51:04.145Z,17.06
2018-04-24T07:53:36.659Z,16.93
2018-04-24T07:56:10.139Z,17.06
2018-04-24T07:58:50.758Z,17.11
2018-04-24T08:01:31.700Z,17.21
2018-04-24T08:04:03.345Z,17.63
2018-04-24T08:06:36.177Z,17.98
2018-04-24T08:11:43.004Z,19.33
2018-04-24T08:14:13.332Z,19.30
2018-04-24T08:16:50.883Z,18.49
2018-04-24T08:19:20.882Z,18.15
2018-04-24T08:21:50.237Z,18.10
2018-04-24T08:24:19.343Z,18.23
2018-04-24T08:26:50.292Z,18.47
2018-04-24T08:29:19.591Z,18.51
2018-04-24T08:31:49.900Z,18.63
2018-04-24T08:34:20.343Z,18.13
2018-04-24T08:37:00.946Z,18.19
2018-04-24T08:39:39.862Z,18.67
2018-04-24T08:44:47.565Z,18.95
2018-04-24T08:47:18.418Z,18.71
2018-04-24T08:49:48.256Z,18.06
2018-04-24T08:52:18.902Z,17.95
2018-04-24T08:54:47.988Z,18.15
2018-04-24T08:57:18.702Z,18.72
2018-04-24T08:59:47.775Z,19.41
2018-04-24T09:02:17.594Z,20.34
2018-04-24T09:04:56.584Z,21.42
2018-04-24T09:07:26.354Z,21.62
2018-04-24T09:09:55.438Z,22.94
2018-04-24T09:12:25.222Z,23.33
2018-04-24T09:14:54.274Z,23.89
2018-04-24T09:17:24.147Z,24.50
2018-04-24T09:19:53.214Z,23.23
2018-04-24T09:22:29.933Z,22.74
2018-04-24T09:24:59.240Z,22.93
2018-04-24T09:27:28.393Z,21.46
2018-04-24T09:30:03.568Z,20.92
2018-04-24T09:32:33.133Z,19.59
2018-04-24T09:35:02.176Z,20.59
2018-04-24T09:37:32.488Z,20.37
2018-04-24T09:40:01.536Z,21.45
2018-04-24T09:42:31.130Z,22.62
2018-04-24T09:45:00.187Z,23.77
2018-04-24T09:47:29.364Z,23.79
2018-04-24T09:49:59.329Z,24.02
2018-04-24T09:52:28.386Z,24.52
2018-04-24T09:54:57.444Z,23.65
2018-04-24T10:00:02.515Z,21.07
2018-04-24T10:02:31.564Z,20.07
2018-04-24T10:05:00.623Z,19.68
2018-04-24T10:07:29.675Z,21.60
2018-04-24T10:09:58.968Z,23.93
2018-04-24T10:12:28.012Z,24.91
2018-04-24T10:14:57.715Z,24.31
2018-04-24T10:17:26.775Z,23.70
2018-04-24T10:19:56.560Z,24.07
2018-04-24T10:22:25.588Z,26.36
2018-04-24T10:24:56.059Z,27.01
2018-04-24T10:27:25.123Z,28.11
2018-04-24T10:29:54.183Z,26.49
2018-04-24T10:34:59.738Z,24.70
2018-04-24T10:37:28.943Z,23.24
2018-04-24T10:39:58.025Z,23.82
2018-04-24T10:45:03.023Z,23.94
2018-04-24T10:47:32.107Z,23.65
2018-04-24T10:50:01.151Z,23.26
2018-04-24T10:52:31.093Z,22.49
2018-04-24T10:55:00.133Z,21.58
2018-04-24T10:57:30.090Z,22.18
2018-04-24T10:59:59.140Z,23.59
2018-04-24T11:02:29.211Z,24.57
2018-04-24T11:04:58.268Z,26.29
2018-04-24T11:10:03.815Z,26.49
2018-04-24T11:12:33.423Z,26.92
2018-04-24T11:15:02.462Z,28.46
2018-04-24T11:17:32.930Z,28.53
2018-04-24T11:20:01.969Z,27.31
2018-04-24T11:22:31.602Z,26.90
2018-04-24T11:25:00.650Z,26.35
2018-04-24T11:27:30.792Z,25.91
2018-04-24T11:29:59.838Z,26.51
2018-04-24T11:32:33.051Z,27.45
2018-04-24T11:35:02.091Z,27.88
2018-04-24T11:37:31.587Z,27.56
2018-04-24T11:40:00.637Z,28.66
2018-04-24T11:42:31.666Z,28.59
2018-04-24T11:45:02.175Z,29.13
2018-04-24T11:47:31.179Z,29.69
2018-04-24T11:50:04.802Z,29.05
2018-04-24T11:52:34.009Z,28.40
2018-04-24T11:55:03.055Z,29.58
2018-04-24T11:57:32.809Z,28.74
2018-04-24T12:00:03.125Z,25.84
2018-04-24T12:02:32.217Z,26.41
2018-04-24T12:05:01.574Z,28.45
2018-04-24T12:07:30.627Z,30.27
2018-04-24T12:10:01.650Z,27.93
2018-04-24T12:12:31.538Z,26.15
2018-04-24T12:15:00.599Z,25.48
2018-04-24T12:17:30.562Z,25.74
2018-04-24T12:19:59.647Z,27.40
2018-04-24T12:22:29.471Z,27.56
2018-04-24T12:24:58.526Z,26.57
2018-04-24T12:27:27.582Z,27.33
2018-04-24T12:29:57.503Z,26.92
2018-04-24T12:32:26.552Z,28.19
2018-04-24T12:34:55.979Z,28.44
2018-04-24T12:37:25.033Z,29.12
2018-04-24T12:39:55.112Z,28.43
2018-04-24T12:42:25.078Z,27.53
2018-04-24T12:44:54.447Z,27.44
2018-04-24T12:47:23.849Z,27.91
2018-04-24T12:49:52.907Z,29.32
2018-04-24T12:52:23.166Z,28.82
2018-04-24T12:54:52.258Z,28.90
2018-04-24T12:57:21.281Z,29.32
2018-04-24T12:59:50.335Z,29.22
2018-04-24T13:02:19.525Z,29.29
2018-04-24T13:04:48.655Z,28.61
2018-04-24T13:07:17.662Z,27.54
2018-04-24T13:09:46.932Z,28.19
2018-04-24T13:12:16.003Z,26.62
2018-04-24T13:14:45.058Z,27.10
2018-04-24T13:17:15.090Z,27.79
2018-04-24T13:24:57.621Z,29.26
2018-04-24T13:27:26.686Z,29.07
2018-04-24T13:29:56.107Z,29.88
2018-04-24T13:32:25.164Z,29.05
2018-04-24T13:35:02.399Z,28.52
2018-04-24T13:37:31.470Z,29.99
2018-04-24T13:40:01.447Z,30.34
2018-04-24T13:42:30.503Z,29.72
2018-04-24T13:45:01.252Z,30.95
2018-04-24T13:47:30.831Z,30.68
2018-04-24T13:50:00.334Z,30.63
2018-04-24T13:55:09.450Z,29.69
2018-04-24T13:57:42.346Z,29.30
2018-04-24T14:00:14.495Z,30.26
2018-04-24T14:02:47.423Z,30.48
2018-04-24T14:05:19.908Z,28.95
2018-04-24T14:07:52.008Z,29.28
2018-04-24T14:10:25.815Z,30.05
2018-04-24T14:12:55.183Z,31.53
2018-04-24T14:15:25.230Z,29.48
2018-04-24T14:17:56.004Z,29.30
2018-04-24T14:20:25.790Z,29.76
2018-04-24T14:22:58.866Z,29.51
2018-04-24T14:25:27.920Z,30.98
2018-04-24T14:27:57.742Z,32.01
2018-04-24T14:30:26.797Z,30.01
2018-04-24T14:32:56.864Z,29.73
2018-04-24T14:38:02.082Z,29.35
2018-04-24T14:40:31.249Z,30.22
2018-04-24T14:43:00.349Z,29.88
2018-04-24T14:45:29.412Z,28.74
2018-04-24T14:47:58.477Z,29.26
2018-04-24T14:50:27.792Z,30.04
2018-04-24T14:52:56.891Z,28.61
2018-04-24T14:55:26.573Z,28.36
2018-04-24T14:57:55.628Z,28.66
2018-04-24T15:00:24.675Z,29.06
2018-04-24T15:02:53.725Z,29.44
2018-04-24T15:05:23.696Z,28.73
2018-04-24T15:10:29.574Z,28.36
2018-04-24T15:12:59.315Z,28.47
2018-04-24T15:15:28.389Z,28.52
2018-04-24T15:17:57.435Z,30.00
2018-04-24T15:20:26.521Z,29.85
2018-04-24T15:22:56.086Z,30.41
2018-04-24T15:28:01.016Z,28.34
2018-04-24T15:33:06.070Z,28.16
2018-04-24T15:38:10.865Z,28.53
2018-04-24T15:40:45.323Z,27.87
2018-04-24T15:43:14.735Z,28.55
2018-04-24T15:45:43.769Z,27.88
2018-04-24T15:50:49.645Z,27.85
2018-04-24T15:53:19.203Z,28.54
2018-04-24T15:55:48.228Z,29.51
2018-04-24T15:58:17.306Z,29.30
2018-04-24T16:00:47.052Z,28.60
2018-04-24T16:03:16.090Z,29.09
2018-04-24T16:05:45.790Z,28.55
2018-04-24T16:08:14.863Z,28.36
2018-04-24T16:10:43.922Z,28.29
2018-04-24T16:13:12.980Z,27.55
2018-04-24T16:15:42.370Z,26.94
2018-04-24T16:18:11.427Z,25.79
2018-04-24T16:20:40.495Z,24.81
2018-04-24T16:23:11.812Z,24.54
2018-04-24T16:25:40.903Z,24.12
2018-04-24T16:28:09.979Z,23.42
2018-04-24T16:30:39.135Z,22.80
2018-04-24T16:33:08.088Z,22.35
2018-04-24T16:35:37.139Z,22.50
2018-04-24T16:38:06.983Z,22.70
2018-04-24T16:40:36.010Z,22.31
2018-04-24T16:43:05.818Z,22.09
2018-04-24T16:45:34.949Z,21.99
2018-04-24T16:48:05.979Z,21.92
2018-04-24T16:50:35.038Z,21.77
2018-04-24T16:53:04.511Z,21.59
2018-04-24T16:55:33.554Z,21.56
2018-04-24T16:58:03.715Z,21.49
2018-04-24T17:00:32.767Z,21.26
2018-04-24T17:03:02.846Z,21.35
2018-04-24T17:08:07.618Z,21.15
2018-04-24T17:13:12.374Z,21.11
2018-04-24T17:15:41.848Z,20.91
2018-04-24T17:20:46.643Z,20.85
2018-04-24T17:23:16.104Z,20.84
2018-04-24T17:25:45.198Z,20.64
2018-04-24T17:30:50.043Z,20.30
2018-04-24T17:35:55.175Z,20.05
2018-04-24T17:38:24.238Z,20.01
2018-04-24T17:40:53.836Z,19.91
2018-04-24T17:45:59.430Z,19.50
2018-04-24T17:51:11.456Z,19.34
2018-04-24T17:53:40.516Z,19.19
2018-04-24T17:56:09.561Z,18.86
2018-04-24T17:58:38.619Z,18.54
2018-04-24T18:01:07.670Z,18.20
2018-04-24T18:03:36.733Z,18.00
2018-04-24T18:08:41.978Z,18.05
2018-04-24T18:11:11.403Z,17.67
2018-04-24T18:13:42.042Z,17.33
2018-04-24T18:18:46.895Z,16.86
2018-04-24T18:23:52.367Z,16.80
2018-04-24T18:28:57.225Z,16.61
2018-04-24T18:31:26.270Z,16.36
2018-04-24T18:33:57.648Z,16.12
2018-04-24T18:36:26.692Z,15.97
2018-04-24T18:38:56.000Z,15.88
2018-04-24T18:41:25.042Z,16.03
2018-04-24T18:43:55.029Z,15.49
2018-04-24T18:46:25.622Z,15.18
2018-04-24T18:48:54.957Z,15.10
2018-04-24T18:51:25.320Z,14.94
2018-04-24T18:53:54.360Z,14.93
2018-04-24T18:56:25.370Z,14.97
2018-04-24T18:58:54.751Z,15.02
2018-04-24T19:01:23.799Z,15.11
2018-04-24T19:03:52.864Z,15.13
2018-04-24T19:06:21.947Z,14.90
2018-04-24T19:08:51.003Z,14.72
2018-04-24T19:11:20.309Z,14.82
2018-04-24T19:13:49.394Z,14.88
2018-04-24T19:16:20.053Z,14.87
2018-04-24T19:18:54.486Z,14.61
2018-04-24T19:21:23.565Z,14.49
2018-04-24T19:23:53.061Z,14.68
2018-04-24T19:26:22.830Z,14.69
2018-04-24T19:28:51.893Z,14.75
2018-04-24T19:31:27.866Z,14.80
2018-04-24T19:33:57.942Z,14.68
2018-04-24T19:36:27.262Z,14.52
2018-04-24T19:39:02.205Z,14.45
2018-04-24T19:41:37.161Z,14.30
2018-04-24T19:44:06.215Z,14.27
2018-04-24T19:46:35.275Z,14.28
2018-04-24T19:49:10.669Z,14.00
2018-04-24T19:51:40.607Z,13.85
2018-04-24T19:54:21.634Z,13.81
2018-04-24T19:56:50.669Z,13.78
2018-04-24T19:59:19.927Z,13.69
2018-04-24T20:01:49.380Z,13.70
2018-04-24T20:04:18.524Z,13.66
2018-04-24T20:06:47.697Z,13.50
2018-04-24T20:09:16.974Z,13.46
2018-04-24T20:11:46.152Z,13.60
2018-04-24T20:14:15.563Z,13.59
2018-04-24T20:19:20.357Z,13.67
2018-04-24T20:21:49.467Z,13.60
2018-04-24T20:24:18.699Z,13.71
2018-04-24T20:26:47.771Z,13.69
2018-04-24T20:29:16.829Z,13.40
2018-04-24T20:31:45.915Z,13.35
2018-04-24T20:36:50.785Z,13.25
2018-04-24T20:39:20.033Z,13.21
2018-04-24T20:41:51.107Z,13.18
2018-04-24T20:44:21.239Z,13.05
2018-04-24T20:49:26.211Z,13.17
2018-04-24T20:51:55.288Z,13.13
2018-04-24T20:54:24.345Z,13.19
2018-04-24T20:56:55.743Z,12.97
2018-04-24T20:59:24.936Z,12.91
2018-04-24T21:01:56.087Z,12.80
2018-04-24T21:04:25.224Z,12.73
2018-04-24T21:06:54.263Z,12.58
2018-04-24T21:09:23.327Z,12.55
2018-04-24T21:11:52.575Z,12.60
2018-04-24T21:14:21.646Z,12.82
2018-04-24T21:16:50.714Z,12.75
2018-04-24T21:19:19.863Z,12.76
2018-04-24T21:21:50.227Z,12.80
2018-04-24T21:24:19.318Z,12.76
2018-04-24T21:29:24.232Z,12.83
2018-04-24T21:31:53.355Z,12.96
2018-04-24T21:34:22.416Z,12.93
2018-04-24T21:36:51.548Z,12.80
2018-04-24T21:39:29.589Z,12.73
2018-04-24T21:41:58.626Z,12.65
2018-04-24T21:44:27.675Z,12.61
2018-04-24T21:49:33.576Z,12.49
2018-04-24T21:52:02.620Z,12.40
2018-04-24T21:54:31.818Z,12.26
2018-04-24T21:57:16.420Z,12.21
2018-04-24T22:00:00.545Z,12.11
2018-04-24T22:02:44.203Z,12.08
2018-04-24T22:05:27.803Z,12.00
2018-04-24T22:07:57.690Z,11.91
2018-04-24T22:10:27.006Z,11.98
2018-04-24T22:12:56.236Z,11.89
2018-04-24T22:15:25.383Z,11.84
2018-04-24T22:17:54.450Z,11.72
2018-04-24T22:20:23.592Z,11.62
2018-04-24T22:22:52.717Z,11.73
2018-04-24T22:25:21.769Z,11.62
2018-04-24T22:27:50.801Z,11.54
2018-04-24T22:30:20.025Z,11.60
2018-04-24T22:35:24.759Z,11.42
2018-04-24T22:40:29.596Z,11.09
2018-04-24T22:42:58.586Z,10.91
2018-04-24T22:45:27.758Z,10.99
2018-04-24T22:47:56.826Z,10.87
2018-04-24T22:50:25.892Z,10.79
2018-04-24T22:52:55.067Z,10.87
2018-04-24T22:55:24.122Z,10.65
2018-04-24T22:57:53.173Z,10.46
2018-04-24T23:00:22.215Z,10.34
2018-04-24T23:02:51.321Z,10.24
2018-04-24T23:05:20.388Z,10.17
2018-04-24T23:07:49.421Z,10.05
2018-04-24T23:10:36.508Z,9.97
2018-04-24T23:13:23.337Z,9.87
2018-04-24T23:16:10.522Z,9.84
2018-04-24T23:18:57.417Z,9.71
2018-04-24T23:21:25.678Z,9.68
2018-04-24T23:23:54.719Z,9.69
2018-04-24T23:26:23.773Z,9.89
2018-04-24T23:28:54.758Z,9.96
2018-04-24T23:31:23.807Z,10.15
2018-04-24T23:33:53.060Z,10.23
2018-04-24T23:36:22.098Z,10.24
2018-04-24T23:38:54.730Z,9.94
2018-04-24T23:41:23.782Z,9.70
2018-04-24T23:43:52.819Z,9.71
2018-04-24T23:46:21.875Z,9.58
2018-04-24T23:48:50.926Z,9.51
2018-04-24T23:51:20.100Z,9.50
2018-04-24T23:53:51.289Z,9.66
2018-04-24T23:56:20.356Z,9.57
2018-04-24T23:58:49.390Z,9.53
